Time;durP1;ratioP1;P1;durP2;ratioP2;P2;SDS_P1;SDS_P2;PMS_P1;PMS_P2;Temp;Humidity;BMP_temperature;BMP_pressure;BME280_temperature;BME280_humidity;BME280_pressure;Samples;Min_cycle;Max_cycle;Signal;HPM_P1;HPM_P2
2021/10/15 00:02:20;;;;;;;18.93;9.37;;;;;;;;;;5117886;28;20703;-65
2021/10/15 00:04:48;;;;;;;17.87;9.27;;;;;;;;;;5117985;28;20224;-65
2021/10/15 00:07:16;;;;;;;17.90;8.47;;;;;;;;;;5119251;28;20228;-64
2021/10/15 00:09:44;;;;;;;13.93;8.80;;;;;;;;;;5122442;27;20216;-64
2021/10/15 00:12:13;;;;;;;14.10;8.60;;;;;;;;;;5122121;28;20196;-64
2021/10/15 00:14:41;;;;;;;15.83;9.63;;;;;;;;;;5121795;28;20319;-64
2021/10/15 00:17:10;;;;;;;14.27;8.17;;;;;;;;;;5121956;28;20204;-65
2021/10/15 00:19:38;;;;;;;15.07;8.23;;;;;;;;;;5122002;27;20291;-64
2021/10/15 00:22:06;;;;;;;13.60;8.50;;;;;;;;;;5121530;28;20779;-64
2021/10/15 00:24:34;;;;;;;13.60;8.30;;;;;;;;;;5121529;27;20239;-65
2021/10/15 00:27:02;;;;;;;12.23;7.73;;;;;;;;;;5121588;28;20659;-65
2021/10/15 00:29:30;;;;;;;15.40;8.93;;;;;;;;;;5121976;28;20652;-65
2021/10/15 00:31:58;;;;;;;16.30;8.60;;;;;;;;;;5121390;28;20264;-64
2021/10/15 00:34:28;;;;;;;12.33;8.40;;;;;;;;;;5121572;28;20236;-64
2021/10/15 00:36:56;;;;;;;17.27;8.10;;;;;;;;;;5121667;28;20213;-65
2021/10/15 00:39:23;;;;;;;13.30;8.90;;;;;;;;;;5121324;28;20254;-64
2021/10/15 00:41:51;;;;;;;12.30;8.30;;;;;;;;;;5121632;28;20230;-65
2021/10/15 00:44:20;;;;;;;13.40;8.77;;;;;;;;;;5121744;27;20228;-65
2021/10/15 00:46:47;;;;;;;15.03;8.53;;;;;;;;;;5120804;28;20213;-64
2021/10/15 00:49:16;;;;;;;17.20;9.33;;;;;;;;;;5121259;28;20201;-65
2021/10/15 00:51:46;;;;;;;13.00;8.67;;;;;;;;;;5121245;27;20580;-65
2021/10/15 00:54:14;;;;;;;17.23;8.63;;;;;;;;;;5121204;28;20228;-65
2021/10/15 00:56:43;;;;;;;13.93;8.73;;;;;;;;;;5121343;28;20244;-64
2021/10/15 00:59:11;;;;;;;13.10;8.57;;;;;;;;;;5120846;28;20287;-64
2021/10/15 01:01:39;;;;;;;12.23;8.63;;;;;;;;;;5121051;28;20225;-65
2021/10/15 01:04:08;;;;;;;14.57;7.67;;;;;;;;;;5120892;28;20651;-65
2021/10/15 01:06:36;;;;;;;13.43;8.27;;;;;;;;;;5121078;27;20208;-65
2021/10/15 01:09:06;;;;;;;12.53;8.10;;;;;;;;;;5121034;28;20571;-65
2021/10/15 01:11:34;;;;;;;13.77;8.27;;;;;;;;;;5121198;28;20205;-65
2021/10/15 01:14:03;;;;;;;11.40;8.17;;;;;;;;;;5121188;28;20231;-65
2021/10/15 01:16:32;;;;;;;14.80;8.03;;;;;;;;;;5120378;27;20751;-64
2021/10/15 01:19:01;;;;;;;13.00;8.43;;;;;;;;;;5120040;28;20240;-65
2021/10/15 01:21:30;;;;;;;10.70;7.27;;;;;;;;;;5121048;28;20307;-65
2021/10/15 01:23:58;;;;;;;15.70;8.17;;;;;;;;;;5120962;28;20589;-65
2021/10/15 01:26:26;;;;;;;11.30;8.13;;;;;;;;;;5121057;28;20207;-64
2021/10/15 01:28:55;;;;;;;12.10;8.07;;;;;;;;;;5120420;28;20211;-63
2021/10/15 01:31:23;;;;;;;10.03;7.23;;;;;;;;;;5120293;28;20672;-62
2021/10/15 01:33:51;;;;;;;11.90;7.07;;;;;;;;;;5120277;28;20565;-65
2021/10/15 01:36:19;;;;;;;11.10;7.53;;;;;;;;;;5120151;28;20258;-65
2021/10/15 01:38:49;;;;;;;14.17;8.90;;;;;;;;;;5120590;28;20237;-64
2021/10/15 01:41:17;;;;;;;13.60;7.97;;;;;;;;;;5120516;28;20209;-64
2021/10/15 01:43:45;;;;;;;10.83;7.80;;;;;;;;;;5120278;28;20216;-64
2021/10/15 01:46:13;;;;;;;12.83;8.37;;;;;;;;;;5119746;28;20735;-64
2021/10/15 01:48:41;;;;;;;13.50;8.80;;;;;;;;;;5120200;28;20236;-64
2021/10/15 01:51:09;;;;;;;16.83;8.37;;;;;;;;;;5120232;28;20208;-63
2021/10/15 01:53:38;;;;;;;14.83;8.03;;;;;;;;;;5120115;28;20660;-64
2021/10/15 01:56:07;;;;;;;12.10;8.00;;;;;;;;;;5120063;28;20209;-62
2021/10/15 01:58:35;;;;;;;11.90;7.93;;;;;;;;;;5120154;28;20212;-62
2021/10/15 02:01:03;;;;;;;13.20;8.03;;;;;;;;;;5119792;28;20211;-63
2021/10/15 02:03:31;;;;;;;15.47;7.80;;;;;;;;;;5119615;28;20224;-63
2021/10/15 02:05:59;;;;;;;12.17;7.67;;;;;;;;;;5120344;28;20204;-64
2021/10/15 02:08:27;;;;;;;13.17;8.73;;;;;;;;;;5120619;28;20287;-64
2021/10/15 02:10:55;;;;;;;10.37;6.97;;;;;;;;;;5120100;28;20204;-64
2021/10/15 02:13:24;;;;;;;11.57;8.00;;;;;;;;;;5119827;28;20207;-65
2021/10/15 02:15:52;;;;;;;14.97;8.00;;;;;;;;;;5119319;28;20661;-64
2021/10/15 02:18:22;;;;;;;10.33;7.40;;;;;;;;;;5119292;28;20213;-64
2021/10/15 02:20:50;;;;;;;12.73;7.70;;;;;;;;;;5119377;28;20209;-65
2021/10/15 02:23:18;;;;;;;14.70;7.87;;;;;;;;;;5119335;28;20289;-65
2021/10/15 02:25:46;;;;;;;14.43;8.83;;;;;;;;;;5119203;28;20227;-63
2021/10/15 02:28:14;;;;;;;12.43;7.50;;;;;;;;;;5119236;28;20751;-64
2021/10/15 02:30:44;;;;;;;11.00;7.90;;;;;;;;;;5118301;28;20254;-62
2021/10/15 02:33:12;;;;;;;11.57;8.47;;;;;;;;;;5119356;27;20219;-64
2021/10/15 02:35:40;;;;;;;17.50;7.83;;;;;;;;;;5119411;28;20308;-64
2021/10/15 02:38:08;;;;;;;11.90;7.33;;;;;;;;;;5119525;28;20288;-64
2021/10/15 02:40:36;;;;;;;11.23;7.33;;;;;;;;;;5119019;28;20271;-64
2021/10/15 02:43:04;;;;;;;12.57;7.63;;;;;;;;;;5119614;28;20221;-64
2021/10/15 02:45:37;;;;;;;11.23;7.70;;;;;;;;;;5118745;28;20779;-64
2021/10/15 02:48:06;;;;;;;12.20;8.27;;;;;;;;;;5118977;27;20201;-64
2021/10/15 02:50:34;;;;;;;11.50;7.50;;;;;;;;;;5119066;28;20209;-64
2021/10/15 02:53:03;;;;;;;10.83;7.27;;;;;;;;;;5118911;28;20254;-64
2021/10/15 02:55:30;;;;;;;12.67;7.70;;;;;;;;;;5118809;28;20602;-64
2021/10/15 02:57:58;;;;;;;14.23;8.00;;;;;;;;;;5118850;28;20227;-65
2021/10/15 03:00:26;;;;;;;11.37;7.57;;;;;;;;;;5118533;28;20201;-64
2021/10/15 03:02:55;;;;;;;10.77;7.23;;;;;;;;;;5118799;28;20252;-64
2021/10/15 03:05:25;;;;;;;13.20;7.57;;;;;;;;;;5118415;28;20228;-63
2021/10/15 03:07:52;;;;;;;13.20;8.07;;;;;;;;;;5118557;28;20310;-64
2021/10/15 03:10:21;;;;;;;13.10;8.40;;;;;;;;;;5119046;28;20288;-63
2021/10/15 03:12:49;;;;;;;10.30;7.50;;;;;;;;;;5118811;28;20201;-62
2021/10/15 03:15:17;;;;;;;11.03;7.63;;;;;;;;;;5118412;28;20228;-64
2021/10/15 03:17:45;;;;;;;13.97;7.80;;;;;;;;;;5118504;28;20215;-64
2021/10/15 03:20:13;;;;;;;14.13;8.27;;;;;;;;;;5117933;28;20205;-64
2021/10/15 03:22:42;;;;;;;12.13;8.07;;;;;;;;;;5118023;28;20726;-64
2021/10/15 03:25:10;;;;;;;15.90;8.13;;;;;;;;;;5118232;28;20223;-64
2021/10/15 03:27:38;;;;;;;11.13;7.80;;;;;;;;;;5118598;28;20222;-64
2021/10/15 03:30:07;;;;;;;10.93;7.60;;;;;;;;;;5118242;28;20272;-65
2021/10/15 03:32:35;;;;;;;12.87;7.77;;;;;;;;;;5118327;28;20211;-64
2021/10/15 03:35:03;;;;;;;12.33;8.13;;;;;;;;;;5118117;28;20620;-63
2021/10/15 03:37:31;;;;;;;14.90;8.60;;;;;;;;;;5118199;28;20579;-65
2021/10/15 03:40:01;;;;;;;14.53;8.20;;;;;;;;;;5117891;28;20707;-64
2021/10/15 03:42:29;;;;;;;14.93;8.17;;;;;;;;;;5118186;28;20269;-64
2021/10/15 03:44:57;;;;;;;13.17;7.73;;;;;;;;;;5118033;28;20231;-62
2021/10/15 03:47:25;;;;;;;13.83;8.60;;;;;;;;;;5117946;28;20201;-64
2021/10/15 03:49:53;;;;;;;15.20;8.33;;;;;;;;;;5118360;28;20321;-62
2021/10/15 03:52:21;;;;;;;15.63;7.73;;;;;;;;;;5118115;28;20286;-62
2021/10/15 03:54:49;;;;;;;14.57;8.20;;;;;;;;;;5118112;28;20216;-63
2021/10/15 03:57:18;;;;;;;12.57;8.40;;;;;;;;;;5113515;28;20201;-62
2021/10/15 03:59:46;;;;;;;13.43;8.37;;;;;;;;;;5116354;28;20954;-62
2021/10/15 04:02:14;;;;;;;15.50;9.10;;;;;;;;;;5116369;28;20544;-64
2021/10/15 04:04:42;;;;;;;10.67;7.83;;;;;;;;;;5115583;28;20243;-63
2021/10/15 04:07:10;;;;;;;15.47;7.90;;;;;;;;;;5116304;28;20214;-64
2021/10/15 04:09:38;;;;;;;11.57;8.23;;;;;;;;;;5116763;28;20574;-65
2021/10/15 04:12:07;;;;;;;10.50;7.83;;;;;;;;;;5116370;28;20209;-65
2021/10/15 04:14:36;;;;;;;15.60;8.37;;;;;;;;;;5116202;28;20227;-65
2021/10/15 04:17:04;;;;;;;12.60;8.20;;;;;;;;;;5116181;28;20562;-63
2021/10/15 04:19:32;;;;;;;12.17;8.20;;;;;;;;;;5115476;28;20666;-63
2021/10/15 04:22:00;;;;;;;14.03;8.43;;;;;;;;;;5116385;28;20205;-64
2021/10/15 04:24:28;;;;;;;10.73;8.20;;;;;;;;;;5116365;28;20227;-64
2021/10/15 04:26:56;;;;;;;14.03;8.73;;;;;;;;;;5116667;28;20200;-65
2021/10/15 04:29:24;;;;;;;11.17;7.97;;;;;;;;;;5111542;28;20201;-64
2021/10/15 04:31:54;;;;;;;9.50;6.70;;;;;;;;;;5114194;28;20197;-64
2021/10/15 04:34:22;;;;;;;11.13;7.70;;;;;;;;;;5115971;28;20228;-65
2021/10/15 04:36:50;;;;;;;11.77;7.63;;;;;;;;;;5116037;28;20691;-65
2021/10/15 04:39:18;;;;;;;14.10;8.30;;;;;;;;;;5115644;28;20240;-65
2021/10/15 04:41:46;;;;;;;11.37;7.47;;;;;;;;;;5113544;28;20197;-64
2021/10/15 04:44:14;;;;;;;13.87;7.80;;;;;;;;;;5115939;28;20326;-63
2021/10/15 04:46:42;;;;;;;14.20;8.50;;;;;;;;;;5115506;28;20207;-63
2021/10/15 04:49:12;;;;;;;13.57;8.70;;;;;;;;;;5115679;28;20197;-63
2021/10/15 04:51:40;;;;;;;11.40;7.87;;;;;;;;;;5115517;28;20211;-64
2021/10/15 04:54:08;;;;;;;17.90;8.17;;;;;;;;;;5116633;28;20229;-64
2021/10/15 04:56:36;;;;;;;12.73;8.27;;;;;;;;;;5120097;28;20284;-64
2021/10/15 04:59:04;;;;;;;13.07;8.30;;;;;;;;;;5118835;28;20233;-64
2021/10/15 05:01:32;;;;;;;12.00;8.23;;;;;;;;;;5119306;28;20215;-64
2021/10/15 05:04:00;;;;;;;12.00;8.23;;;;;;;;;;5119578;28;20224;-65
2021/10/15 05:06:29;;;;;;;11.10;7.70;;;;;;;;;;5119680;28;20196;-64
2021/10/15 05:09:14;;;;;;;13.23;8.30;;;;;;;;;;5118759;28;20213;-64
2021/10/15 05:11:45;;;;;;;12.47;8.37;;;;;;;;;;5117894;28;20280;-65
2021/10/15 05:14:14;;;;;;;11.50;8.10;;;;;;;;;;5108968;28;20233;-65
2021/10/15 05:16:47;;;;;;;12.93;7.90;;;;;;;;;;5115554;28;20236;-67
2021/10/15 05:19:15;;;;;;;13.83;8.93;;;;;;;;;;5117195;28;20207;-66
2021/10/15 05:21:45;;;;;;;14.03;8.57;;;;;;;;;;5120214;28;20223;-66
2021/10/15 05:24:13;;;;;;;11.23;8.83;;;;;;;;;;5120293;28;20229;-65
2021/10/15 05:26:41;;;;;;;10.67;7.40;;;;;;;;;;5107164;28;20212;-65
2021/10/15 05:29:09;;;;;;;12.23;8.13;;;;;;;;;;5120100;28;20211;-65
2021/10/15 05:31:37;;;;;;;12.93;8.10;;;;;;;;;;5119578;27;20208;-65
2021/10/15 05:34:05;;;;;;;11.83;8.47;;;;;;;;;;5120206;28;20229;-66
2021/10/15 05:36:33;;;;;;;13.20;8.77;;;;;;;;;;5120322;28;20201;-65
2021/10/15 05:39:03;;;;;;;17.17;8.47;;;;;;;;;;5120095;28;20606;-65
2021/10/15 05:41:31;;;;;;;13.53;8.87;;;;;;;;;;5120391;28;20211;-65
2021/10/15 05:43:59;;;;;;;13.77;8.67;;;;;;;;;;5120023;28;20289;-65
2021/10/15 05:46:27;;;;;;;14.83;8.43;;;;;;;;;;5119675;28;20292;-65
2021/10/15 05:48:55;;;;;;;11.63;7.87;;;;;;;;;;5120011;28;20295;-65
2021/10/15 05:51:25;;;;;;;12.23;7.70;;;;;;;;;;5119565;28;20213;-65
2021/10/15 05:53:56;;;;;;;15.80;9.00;;;;;;;;;;5119400;28;20239;-66
2021/10/15 05:56:41;;;;;;;14.43;9.00;;;;;;;;;;5118953;28;20204;-65
2021/10/15 05:59:09;;;;;;;13.50;8.17;;;;;;;;;;5117741;28;20207;-65
2021/10/15 06:01:37;;;;;;;12.13;8.40;;;;;;;;;;5118543;27;20256;-64
2021/10/15 06:04:40;;;;;;;12.27;8.00;;;;;;;;;;5118874;28;20283;-64
2021/10/15 06:15:34;;;;;;;10.53;7.73;;;;;;;;;;5117092;28;20219;-65
2021/10/15 06:18:11;;;;;;;16.90;8.43;;;;;;;;;;5123125;27;20204;-65
2021/10/15 06:20:39;;;;;;;14.17;7.97;;;;;;;;;;5122722;27;20701;-65
2021/10/15 06:23:08;;;;;;;17.27;9.30;;;;;;;;;;5128707;27;20663;-65
2021/10/15 06:25:37;;;;;;;13.00;8.60;;;;;;;;;;5122205;27;20224;-64
2021/10/15 06:28:10;;;;;;;11.90;8.53;;;;;;;;;;5122038;27;20663;-64
2021/10/15 06:30:39;;;;;;;15.57;9.23;;;;;;;;;;5117735;28;20279;-65
2021/10/15 06:33:08;;;;;;;15.83;9.10;;;;;;;;;;5115113;28;20204;-64
2021/10/15 06:35:36;;;;;;;13.33;8.33;;;;;;;;;;5117646;28;20216;-64
2021/10/15 06:38:06;;;;;;;12.30;8.43;;;;;;;;;;5117865;28;20197;-65
2021/10/15 06:40:34;;;;;;;16.43;8.87;;;;;;;;;;5117543;28;20278;-65
2021/10/15 06:43:02;;;;;;;15.40;8.77;;;;;;;;;;5118272;28;20204;-64
2021/10/15 06:45:32;;;;;;;15.90;9.10;;;;;;;;;;5117870;28;20228;-65
2021/10/15 06:47:59;;;;;;;17.97;10.40;;;;;;;;;;5117837;28;20239;-65
2021/10/15 06:50:27;;;;;;;12.70;8.37;;;;;;;;;;5114733;28;20229;-65
2021/10/15 06:52:56;;;;;;;12.80;8.47;;;;;;;;;;5118655;28;20205;-65
2021/10/15 06:55:25;;;;;;;17.80;9.47;;;;;;;;;;5118481;28;20227;-65
2021/10/15 06:57:53;;;;;;;17.90;9.60;;;;;;;;;;5118644;28;20209;-65
2021/10/15 07:00:21;;;;;;;16.57;10.00;;;;;;;;;;5118499;28;20288;-65
2021/10/15 07:02:50;;;;;;;14.40;8.77;;;;;;;;;;5118598;28;20207;-64
2021/10/15 07:05:21;;;;;;;14.93;9.50;;;;;;;;;;5118892;28;20244;-64
2021/10/15 07:07:49;;;;;;;14.90;8.57;;;;;;;;;;5117818;28;20211;-65
2021/10/15 07:10:17;;;;;;;13.43;8.03;;;;;;;;;;5117904;28;20279;-65
2021/10/15 07:12:45;;;;;;;13.00;9.27;;;;;;;;;;5117801;28;20193;-64
2021/10/15 07:15:14;;;;;;;12.23;8.43;;;;;;;;;;5115221;28;20252;-64
2021/10/15 07:17:43;;;;;;;16.07;8.43;;;;;;;;;;5117903;28;20316;-65
2021/10/15 07:20:13;;;;;;;14.37;8.63;;;;;;;;;;5118237;28;20215;-65
2021/10/15 07:22:40;;;;;;;12.90;8.57;;;;;;;;;;5118347;28;20215;-64
2021/10/15 07:25:09;;;;;;;13.27;8.83;;;;;;;;;;5117883;28;20378;-64
2021/10/15 07:27:37;;;;;;;15.17;8.70;;;;;;;;;;5118184;28;20215;-65
2021/10/15 07:30:06;;;;;;;12.10;8.57;;;;;;;;;;5117718;28;20205;-64
2021/10/15 07:32:35;;;;;;;14.03;8.97;;;;;;;;;;5118048;28;20208;-64
2021/10/15 07:35:03;;;;;;;14.93;9.43;;;;;;;;;;5117280;28;20229;-64
2021/10/15 07:37:32;;;;;;;17.70;9.50;;;;;;;;;;5117311;28;20204;-65
2021/10/15 07:40:00;;;;;;;19.87;9.87;;;;;;;;;;5117491;28;20299;-65
2021/10/15 07:42:28;;;;;;;21.97;9.97;;;;;;;;;;5117994;28;20317;-65
2021/10/15 07:44:56;;;;;;;17.87;11.00;;;;;;;;;;5117619;28;20266;-64
2021/10/15 07:47:24;;;;;;;16.23;9.90;;;;;;;;;;5117681;28;20670;-65
2021/10/15 07:49:52;;;;;;;21.43;10.63;;;;;;;;;;5126320;28;20203;-64
2021/10/15 07:52:20;;;;;;;16.23;10.33;;;;;;;;;;5126440;28;20200;-65
2021/10/15 07:54:50;;;;;;;16.37;9.67;;;;;;;;;;5125839;27;20674;-65
2021/10/15 07:57:18;;;;;;;19.53;9.60;;;;;;;;;;5123848;28;20219;-64
2021/10/15 07:59:46;;;;;;;13.57;9.00;;;;;;;;;;5126336;28;20196;-64
2021/10/15 08:02:15;;;;;;;15.57;10.37;;;;;;;;;;5126604;28;20210;-65
2021/10/15 08:04:43;;;;;;;70.17;18.27;;;;;;;;;;5127387;27;20212;-64
2021/10/15 08:07:11;;;;;;;27.77;13.53;;;;;;;;;;5124369;28;20195;-64
2021/10/15 08:09:39;;;;;;;21.90;11.17;;;;;;;;;;5124207;28;20283;-65
2021/10/15 08:12:08;;;;;;;19.23;10.07;;;;;;;;;;5126714;28;20201;-65
2021/10/15 08:14:36;;;;;;;18.10;9.60;;;;;;;;;;5122062;28;20225;-64
2021/10/15 08:17:04;;;;;;;15.47;10.60;;;;;;;;;;5125186;28;20276;-65
2021/10/15 08:19:38;;;;;;;15.73;9.30;;;;;;;;;;5120187;28;20218;-65
2021/10/15 08:22:07;;;;;;;17.07;9.63;;;;;;;;;;5117424;28;20550;-64
2021/10/15 08:24:35;;;;;;;15.53;10.37;;;;;;;;;;5120029;28;20311;-65
2021/10/15 08:27:03;;;;;;;15.10;10.23;;;;;;;;;;5117626;28;20228;-65
2021/10/15 08:29:37;;;;;;;13.63;10.03;;;;;;;;;;5129318;27;20207;-65
2021/10/15 08:32:06;;;;;;;17.27;10.03;;;;;;;;;;5122842;27;20196;-64
2021/10/15 08:34:34;;;;;;;16.77;9.40;;;;;;;;;;5125889;27;20707;-65
2021/10/15 08:37:02;;;;;;;17.47;10.03;;;;;;;;;;5121454;28;20211;-64
2021/10/15 08:39:30;;;;;;;13.63;9.70;;;;;;;;;;5120998;27;20260;-64
2021/10/15 08:41:59;;;;;;;18.20;9.90;;;;;;;;;;5121197;28;20211;-64
2021/10/15 08:44:34;;;;;;;14.67;9.90;;;;;;;;;;5121029;28;20235;-64
2021/10/15 08:47:02;;;;;;;14.47;10.37;;;;;;;;;;5121479;27;20235;-64
2021/10/15 08:49:50;;;;;;;14.67;9.33;;;;;;;;;;5121332;28;20216;-65
2021/10/15 08:52:18;;;;;;;16.57;10.80;;;;;;;;;;5121155;28;20280;-65
2021/10/15 08:54:46;;;;;;;16.03;9.33;;;;;;;;;;5120784;28;20224;-64
2021/10/15 08:57:15;;;;;;;12.97;9.73;;;;;;;;;;5121096;28;20228;-64
2021/10/15 08:59:46;;;;;;;17.50;10.13;;;;;;;;;;5120844;28;20279;-65
2021/10/15 09:02:15;;;;;;;13.43;9.77;;;;;;;;;;5120811;28;20295;-65
2021/10/15 09:04:44;;;;;;;15.37;9.47;;;;;;;;;;5121498;28;20284;-65
2021/10/15 09:07:12;;;;;;;18.67;10.00;;;;;;;;;;5120926;28;20227;-65
2021/10/15 09:09:40;;;;;;;13.17;9.07;;;;;;;;;;5120628;28;20209;-65
2021/10/15 09:12:09;;;;;;;11.80;9.70;;;;;;;;;;5120302;28;20628;-65
2021/10/15 09:14:38;;;;;;;11.77;9.37;;;;;;;;;;5120937;28;20229;-65
2021/10/15 09:17:09;;;;;;;13.47;9.73;;;;;;;;;;5120382;28;20632;-66
2021/10/15 09:19:37;;;;;;;15.03;9.60;;;;;;;;;;5120592;28;20217;-64
2021/10/15 09:22:10;;;;;;;14.13;9.77;;;;;;;;;;5120937;28;20208;-65
2021/10/15 09:24:38;;;;;;;12.43;8.03;;;;;;;;;;5120378;28;20224;-65
2021/10/15 09:27:14;;;;;;;15.67;9.00;;;;;;;;;;5120383;28;20236;-65
2021/10/15 09:29:43;;;;;;;11.23;9.23;;;;;;;;;;5120103;28;20900;-65
2021/10/15 09:32:12;;;;;;;13.20;8.37;;;;;;;;;;5120355;28;20215;-65
2021/10/15 09:34:40;;;;;;;14.90;9.33;;;;;;;;;;5123337;27;20223;-66
2021/10/15 09:37:12;;;;;;;15.33;9.10;;;;;;;;;;5130931;27;20233;-65
2021/10/15 09:39:40;;;;;;;13.83;8.50;;;;;;;;;;5128387;27;20580;-65
2021/10/15 09:42:32;;;;;;;17.00;10.90;;;;;;;;;;5129110;27;20204;-65
2021/10/15 09:45:05;;;;;;;12.73;8.83;;;;;;;;;;5111985;27;20284;-66
2021/10/15 09:47:36;;;;;;;11.47;8.13;;;;;;;;;;5117633;27;20225;-65
2021/10/15 09:50:05;;;;;;;12.53;7.83;;;;;;;;;;5120080;28;20209;-64
2021/10/15 09:52:36;;;;;;;10.40;7.17;;;;;;;;;;5120060;28;20204;-65
2021/10/15 09:55:09;;;;;;;12.43;8.47;;;;;;;;;;5119783;27;20235;-64
2021/10/15 09:57:38;;;;;;;11.57;7.97;;;;;;;;;;5119771;28;20205;-65
2021/10/15 10:00:07;;;;;;;11.90;8.07;;;;;;;;;;5119550;28;20275;-64
2021/10/15 10:02:37;;;;;;;12.93;7.77;;;;;;;;;;5119554;28;20292;-65
2021/10/15 10:05:06;;;;;;;10.07;7.57;;;;;;;;;;5119632;28;20240;-64
2021/10/15 10:07:35;;;;;;;13.63;7.73;;;;;;;;;;5119506;28;20247;-65
2021/10/15 10:10:05;;;;;;;11.87;7.70;;;;;;;;;;5121949;27;20664;-64
2021/10/15 10:12:34;;;;;;;14.13;8.30;;;;;;;;;;5127867;27;20193;-65
2021/10/15 10:15:02;;;;;;;10.07;7.37;;;;;;;;;;5128781;27;20228;-65
2021/10/15 10:17:32;;;;;;;11.60;7.73;;;;;;;;;;5127709;27;20197;-65
2021/10/15 10:20:06;;;;;;;10.80;7.73;;;;;;;;;;5119843;27;20265;-65
2021/10/15 10:22:36;;;;;;;9.50;6.87;;;;;;;;;;5127759;27;20203;-64
2021/10/15 10:25:18;;;;;;;8.70;6.97;;;;;;;;;;5128573;27;20302;-64
2021/10/15 10:27:46;;;;;;;11.10;6.90;;;;;;;;;;5119529;28;20228;-64
2021/10/15 10:30:17;;;;;;;11.03;7.00;;;;;;;;;;5119057;28;20239;-65
2021/10/15 10:33:00;;;;;;;9.57;6.70;;;;;;;;;;5121388;27;20205;-67
2021/10/15 10:35:30;;;;;;;9.20;6.60;;;;;;;;;;5128801;27;20224;-65
2021/10/15 10:38:17;;;;;;;7.73;6.87;;;;;;;;;;5128060;27;20258;-65
2021/10/15 10:41:12;;;;;;;7.67;6.33;;;;;;;;;;5119266;27;20274;-65
2021/10/15 10:44:01;;;;;;;9.80;6.60;;;;;;;;;;5118958;28;20238;-65
2021/10/15 10:46:29;;;;;;;7.20;5.67;;;;;;;;;;5118485;28;20228;-66
2021/10/15 10:49:17;;;;;;;8.33;6.73;;;;;;;;;;5118709;28;20205;-65
2021/10/15 10:52:01;;;;;;;10.10;6.73;;;;;;;;;;5116631;27;20201;-65
2021/10/15 10:54:32;;;;;;;9.37;6.60;;;;;;;;;;5118328;28;20231;-65
2021/10/15 10:57:12;;;;;;;8.20;6.40;;;;;;;;;;5118165;28;20201;-66
2021/10/15 10:59:40;;;;;;;10.20;6.40;;;;;;;;;;5118453;28;20284;-65
2021/10/15 11:02:15;;;;;;;7.40;6.00;;;;;;;;;;5118447;28;20579;-65
2021/10/15 11:04:54;;;;;;;6.50;5.63;;;;;;;;;;5118740;28;20228;-65
2021/10/15 11:07:23;;;;;;;7.60;6.70;;;;;;;;;;5118406;28;20588;-65
2021/10/15 11:09:53;;;;;;;9.03;6.20;;;;;;;;;;5118385;28;20239;-66
2021/10/15 11:12:22;;;;;;;10.03;6.70;;;;;;;;;;5118332;28;20197;-65
2021/10/15 11:14:52;;;;;;;6.97;5.73;;;;;;;;;;5104589;28;20692;-65
2021/10/15 11:17:24;;;;;;;9.30;6.47;;;;;;;;;;5118367;28;20227;-65
2021/10/15 11:20:06;;;;;;;8.93;6.60;;;;;;;;;;5118487;28;20674;-65
2021/10/15 11:22:35;;;;;;;8.77;6.63;;;;;;;;;;5118204;28;20687;-65
2021/10/15 11:25:05;;;;;;;9.07;6.17;;;;;;;;;;5118193;28;20221;-65
2021/10/15 11:27:33;;;;;;;7.37;6.20;;;;;;;;;;5118121;28;20230;-65
2021/10/15 11:30:02;;;;;;;8.40;4.90;;;;;;;;;;5118014;28;20215;-65
2021/10/15 11:32:34;;;;;;;7.60;6.17;;;;;;;;;;5117927;28;20205;-64
2021/10/15 11:35:04;;;;;;;9.00;5.60;;;;;;;;;;5118358;28;20233;-65
2021/10/15 11:37:47;;;;;;;10.93;6.97;;;;;;;;;;5117917;28;20287;-65
2021/10/15 11:40:18;;;;;;;13.27;5.73;;;;;;;;;;5118070;28;20233;-65
2021/10/15 11:42:46;;;;;;;9.10;6.20;;;;;;;;;;5117988;28;20296;-66
2021/10/15 11:45:24;;;;;;;7.13;5.07;;;;;;;;;;5117581;28;20235;-65
2021/10/15 11:47:59;;;;;;;8.87;5.77;;;;;;;;;;5117542;28;20713;-65
2021/10/15 11:50:38;;;;;;;6.50;5.13;;;;;;;;;;5117590;28;20562;-65
2021/10/15 11:53:06;;;;;;;6.47;5.30;;;;;;;;;;5117360;28;20254;-65
2021/10/15 11:55:37;;;;;;;8.93;5.60;;;;;;;;;;5117591;28;20228;-65
2021/10/15 11:58:18;;;;;;;9.67;5.77;;;;;;;;;;5117814;28;20279;-66
2021/10/15 12:00:56;;;;;;;8.17;5.63;;;;;;;;;;5117513;28;20208;-65
2021/10/15 12:03:25;;;;;;;9.53;5.20;;;;;;;;;;5118915;28;20204;-65
2021/10/15 12:05:54;;;;;;;9.43;5.97;;;;;;;;;;5122112;28;20212;-65
2021/10/15 12:08:22;;;;;;;11.57;5.37;;;;;;;;;;5122263;28;20224;-65
2021/10/15 12:10:52;;;;;;;9.20;5.90;;;;;;;;;;5121734;28;20657;-65
2021/10/15 12:13:20;;;;;;;9.10;5.20;;;;;;;;;;5122295;27;20285;-65
2021/10/15 12:15:48;;;;;;;9.70;5.33;;;;;;;;;;5121545;28;20311;-65
2021/10/15 12:18:18;;;;;;;6.33;5.30;;;;;;;;;;5121864;28;20565;-65
2021/10/15 12:20:46;;;;;;;8.37;5.33;;;;;;;;;;5121410;28;20200;-65
2021/10/15 12:23:14;;;;;;;6.07;4.30;;;;;;;;;;5121620;28;20219;-65
2021/10/15 12:25:43;;;;;;;9.13;4.67;;;;;;;;;;5121616;28;20256;-67
2021/10/15 12:28:13;;;;;;;8.63;5.10;;;;;;;;;;5121590;28;20315;-65
2021/10/15 12:30:41;;;;;;;9.43;5.07;;;;;;;;;;5121155;28;20629;-65
2021/10/15 12:33:14;;;;;;;13.13;6.47;;;;;;;;;;5121338;28;20205;-65
2021/10/15 12:35:42;;;;;;;10.50;5.87;;;;;;;;;;5121156;28;20294;-65
2021/10/15 12:38:12;;;;;;;6.17;4.63;;;;;;;;;;5121130;28;20203;-65
2021/10/15 12:40:42;;;;;;;9.33;4.80;;;;;;;;;;5121204;28;20204;-65
2021/10/15 12:43:13;;;;;;;7.40;4.80;;;;;;;;;;5121501;28;20196;-65
2021/10/15 12:45:44;;;;;;;7.93;4.67;;;;;;;;;;5107773;28;20281;-65
2021/10/15 12:48:16;;;;;;;7.53;4.93;;;;;;;;;;5121102;27;20718;-65
2021/10/15 12:50:57;;;;;;;4.70;3.80;;;;;;;;;;5121444;28;20205;-65
2021/10/15 12:53:25;;;;;;;5.17;3.10;;;;;;;;;;5121267;28;20201;-65
2021/10/15 12:55:55;;;;;;;8.73;4.20;;;;;;;;;;5121237;28;20212;-65
2021/10/15 12:58:24;;;;;;;9.30;3.83;;;;;;;;;;5121038;28;20222;-65
2021/10/15 13:00:54;;;;;;;6.30;3.57;;;;;;;;;;5120983;28;20205;-65
2021/10/15 13:03:22;;;;;;;7.43;4.37;;;;;;;;;;5121100;28;20262;-65
2021/10/15 13:05:50;;;;;;;7.23;3.37;;;;;;;;;;5121419;28;20225;-65
2021/10/15 13:08:19;;;;;;;6.37;4.43;;;;;;;;;;5120899;28;20225;-65
2021/10/15 13:10:48;;;;;;;6.47;3.70;;;;;;;;;;5120883;28;20236;-65
2021/10/15 13:13:17;;;;;;;6.80;3.37;;;;;;;;;;5120726;28;20201;-65
2021/10/15 13:15:45;;;;;;;3.30;2.90;;;;;;;;;;5119498;28;20235;-65
2021/10/15 13:18:14;;;;;;;5.10;3.47;;;;;;;;;;5120812;27;20205;-65
2021/10/15 13:20:45;;;;;;;5.27;3.30;;;;;;;;;;5120518;28;20205;-65
2021/10/15 13:23:13;;;;;;;3.67;2.67;;;;;;;;;;5120902;28;20212;-66
2021/10/15 13:25:41;;;;;;;7.00;3.13;;;;;;;;;;5120113;28;20239;-65
2021/10/15 13:28:09;;;;;;;6.83;3.00;;;;;;;;;;5120440;28;20235;-64
2021/10/15 13:30:37;;;;;;;4.70;3.00;;;;;;;;;;5120106;28;20217;-63
2021/10/15 13:33:08;;;;;;;6.07;3.13;;;;;;;;;;5120348;28;20288;-65
2021/10/15 13:35:37;;;;;;;3.63;2.90;;;;;;;;;;5120240;28;20263;-65
2021/10/15 13:38:08;;;;;;;6.57;3.73;;;;;;;;;;5120137;28;20615;-65
2021/10/15 13:40:48;;;;;;;4.33;3.30;;;;;;;;;;5119974;28;20236;-65
2021/10/15 13:43:25;;;;;;;6.67;3.17;;;;;;;;;;5119798;28;20204;-65
2021/10/15 13:51:23;;;;;;;7.33;2.90;;;;;;;;;;5108119;28;20205;-65
2021/10/15 13:53:52;;;;;;;8.00;3.27;;;;;;;;;;5120477;28;20227;-65
2021/10/15 13:56:20;;;;;;;6.17;3.03;;;;;;;;;;5120512;28;20227;-65
2021/10/15 13:58:50;;;;;;;6.63;3.00;;;;;;;;;;5119977;27;20205;-65
2021/10/15 14:01:21;;;;;;;3.40;3.00;;;;;;;;;;5120203;28;20288;-65
2021/10/15 14:06:42;;;;;;;9.33;3.33;;;;;;;;;;5119796;28;20205;-64
2021/10/15 14:09:09;;;;;;;4.43;2.83;;;;;;;;;;5119746;28;20715;-65
2021/10/15 14:11:37;;;;;;;4.23;3.03;;;;;;;;;;5119936;28;20269;-65
2021/10/15 14:14:05;;;;;;;5.27;3.13;;;;;;;;;;5119714;28;20228;-65
2021/10/15 14:16:33;;;;;;;4.00;2.77;;;;;;;;;;5119422;28;20292;-66
2021/10/15 14:19:01;;;;;;;6.03;2.70;;;;;;;;;;5120078;28;20205;-65
2021/10/15 14:21:29;;;;;;;10.73;3.23;;;;;;;;;;5119658;28;20279;-65
2021/10/15 14:23:59;;;;;;;4.97;2.90;;;;;;;;;;5119800;28;20235;-65
2021/10/15 14:26:27;;;;;;;7.60;3.07;;;;;;;;;;5119526;28;20672;-66
2021/10/15 14:28:55;;;;;;;3.93;2.37;;;;;;;;;;5118993;28;20235;-66
2021/10/15 14:31:23;;;;;;;6.20;2.97;;;;;;;;;;5119243;28;20310;-65
2021/10/15 14:33:51;;;;;;;3.00;2.70;;;;;;;;;;5119260;28;20304;-64
2021/10/15 14:36:19;;;;;;;3.53;2.70;;;;;;;;;;5119532;28;20326;-65
2021/10/15 14:38:47;;;;;;;4.57;2.60;;;;;;;;;;5119192;28;20229;-65
2021/10/15 14:41:16;;;;;;;3.43;2.63;;;;;;;;;;5118815;28;20250;-66
2021/10/15 14:43:44;;;;;;;6.20;2.70;;;;;;;;;;5116740;28;20215;-64
2021/10/15 14:46:12;;;;;;;5.63;2.40;;;;;;;;;;5116425;28;20204;-63
2021/10/15 14:48:40;;;;;;;4.30;2.30;;;;;;;;;;5118335;27;20235;-64
2021/10/15 14:51:08;;;;;;;4.00;2.10;;;;;;;;;;5119037;28;20208;-64
2021/10/15 14:53:36;;;;;;;4.83;2.67;;;;;;;;;;5119179;28;20211;-64
2021/10/15 14:56:04;;;;;;;2.97;2.07;;;;;;;;;;5118784;27;20690;-63
2021/10/15 14:58:33;;;;;;;3.57;2.40;;;;;;;;;;5118807;28;20211;-64
2021/10/15 15:01:03;;;;;;;3.97;2.70;;;;;;;;;;5118397;28;20204;-64
2021/10/15 15:03:33;;;;;;;3.97;2.57;;;;;;;;;;5118826;28;20201;-63
2021/10/15 15:06:01;;;;;;;6.07;2.43;;;;;;;;;;5118846;28;20209;-64